Time;durP1;ratioP1;P1;durP2;ratioP2;P2;SDS_P1;SDS_P2;PMS_P1;PMS_P2;Temp;Humidity;BMP_temperature;BMP_pressure;BME280_temperature;BME280_humidity;BME280_pressure;Samples;Min_cycle;Max_cycle;Signal;HPM_P1;HPM_P2
2022/10/18 04:10:57;;;;;;;45.22;24.50;;;;;;;6.33;100.00;101742.84;5568196;31;185587;-89
2022/10/18 04:14:00;;;;;;;43.63;23.85;;;;;;;6.27;100.00;101747.28;5558172;32;33781;-87
2022/10/18 04:17:03;;;;;;;41.35;24.17;;;;;;;6.24;100.00;101752.63;5559326;32;35077;-87
2022/10/18 04:20:09;;;;;;;34.88;22.62;;;;;;;6.28;100.00;101747.28;5548806;32;32978;-87
2022/10/18 04:23:13;;;;;;;35.60;22.02;;;;;;;6.33;100.00;101742.84;5563633;32;33946;-87
2022/10/18 04:26:16;;;;;;;34.67;21.62;;;;;;;6.40;100.00;101748.06;5553162;32;32606;-87
2022/10/18 04:29:19;;;;;;;34.35;20.85;;;;;;;6.38;100.00;101740.16;5566572;32;32903;-87
2022/10/18 04:32:22;;;;;;;39.25;21.17;;;;;;;6.36;100.00;101736.69;5566279;32;34133;-87
2022/10/18 04:35:24;;;;;;;34.55;20.77;;;;;;;6.37;100.00;101734.91;5566032;32;34229;-87
2022/10/18 04:38:27;;;;;;;35.60;21.17;;;;;;;6.39;100.00;101744.53;5566638;32;35187;-87
2022/10/18 04:41:30;;;;;;;32.15;20.05;;;;;;;6.37;100.00;101745.44;5566648;32;34190;-87
2022/10/18 04:44:33;;;;;;;30.17;20.33;;;;;;;6.40;100.00;101740.16;5566009;32;33752;-87
2022/10/18 04:47:35;;;;;;;34.13;20.02;;;;;;;6.39;100.00;101738.41;5565878;32;34339;-89
2022/10/18 04:50:39;;;;;;;28.20;19.87;;;;;;;6.37;100.00;101733.16;5565952;32;34042;-89
2022/10/18 04:53:48;;;;;;;29.83;19.70;;;;;;;6.38;100.00;101734.87;5577789;32;34016;-89
2022/10/18 04:56:50;;;;;;;31.35;19.05;;;;;;;6.40;100.00;101722.59;5570689;32;33283;-89
2022/10/18 04:59:53;;;;;;;31.58;19.12;;;;;;;6.40;100.00;101725.22;5599805;31;34137;-88
2022/10/18 05:02:57;;;;;;;27.90;18.73;;;;;;;6.38;100.00;101715.59;5579397;32;34093;-87
2022/10/18 05:05:59;;;;;;;27.77;19.67;;;;;;;6.38;100.00;101721.72;5562672;32;33825;-87
2022/10/18 05:09:05;;;;;;;28.98;19.75;;;;;;;6.38;100.00;101718.22;5572892;32;33955;-88
2022/10/18 05:12:07;;;;;;;29.58;19.45;;;;;;;6.35;100.00;101724.41;5573701;32;34140;-87
2022/10/18 05:15:10;;;;;;;27.42;19.05;;;;;;;6.32;100.00;101719.13;5543426;32;32350;-88
2022/10/18 05:18:12;;;;;;;29.23;19.85;;;;;;;6.38;100.00;101721.72;5582474;32;34529;-88
2022/10/18 05:21:15;;;;;;;31.85;20.42;;;;;;;6.40;100.00;101725.22;5568127;31;33443;-89
2022/10/18 05:24:18;;;;;;;31.65;19.40;;;;;;;6.42;100.00;101722.56;5543786;31;33058;-89
2022/10/18 05:27:24;;;;;;;29.50;20.70;;;;;;;6.45;100.00;101725.16;5562727;32;34102;-89
2022/10/18 05:30:27;;;;;;;30.80;20.35;;;;;;;6.48;100.00;101725.13;5560185;32;33985;-88
2022/10/18 05:33:30;;;;;;;29.20;19.12;;;;;;;6.49;100.00;101726.00;5553031;32;33214;-88
2022/10/18 05:36:33;;;;;;;27.67;18.98;;;;;;;6.54;100.00;101726.84;5558249;32;34727;-88
2022/10/18 05:39:37;;;;;;;28.98;18.77;;;;;;;6.62;100.00;101727.59;5543134;32;32436;-88
2022/10/18 05:42:39;;;;;;;32.08;20.20;;;;;;;6.56;100.00;101727.69;5556503;32;33807;-88
2022/10/18 05:45:49;;;;;;;27.60;19.37;;;;;;;6.53;100.00;101733.00;5602706;26;34512;-89
2022/10/18 05:48:52;;;;;;;30.77;19.65;;;;;;;6.58;100.00;101732.03;5522271;32;32655;-89
2022/10/18 05:51:55;;;;;;;28.73;19.30;;;;;;;6.64;100.00;101727.59;5601794;26;33036;-89
2022/10/18 05:54:57;;;;;;;35.38;20.45;;;;;;;6.72;100.00;101726.62;5523051;32;32583;-88
2022/10/18 05:58:00;;;;;;;39.50;20.45;;;;;;;6.73;100.00;101722.19;5538173;32;34371;-88
2022/10/18 06:27:25;;;;;;;43.53;20.85;;;;;;;7.57;100.00;101743.97;5394081;32;31440;-89
2022/10/18 06:30:28;;;;;;;34.75;20.50;;;;;;;7.72;100.00;101748.13;5409387;32;34077;-89
2022/10/18 06:33:32;;;;;;;37.22;20.65;;;;;;;7.86;100.00;101750.56;5407445;32;34020;-86
2022/10/18 06:36:35;;;;;;;27.95;18.95;;;;;;;8.00;100.00;101751.19;5403357;32;33615;-88
2022/10/18 06:39:38;;;;;;;29.52;18.80;;;;;;;8.09;100.00;101758.09;5409629;32;34029;-88
2022/10/18 06:42:41;;;;;;;29.98;19.02;;;;;;;8.19;100.00;101753.53;5414619;32;33483;-88
2022/10/18 06:45:47;;;;;;;26.77;18.40;;;;;;;8.32;100.00;101749.78;5479400;27;33718;-87
2022/10/18 06:48:50;;;;;;;27.10;17.80;;;;;;;8.47;100.00;101750.38;5461399;32;34782;-89
2022/10/18 07:10:52;;;;;;;30.02;18.77;;;;;;;9.62;100.00;101763.03;5523038;27;20100;-87
2022/10/18 07:14:01;;;;;;;25.98;19.05;;;;;;;10.15;100.00;101767.06;5458179;32;34743;-87
2022/10/18 07:17:07;;;;;;;29.73;18.62;;;;;;;10.63;100.00;101757.84;5460062;32;34934;-87
2022/10/18 07:20:12;;;;;;;25.52;18.45;;;;;;;11.10;100.00;101751.22;5490021;27;34369;-88
2022/10/18 07:23:15;;;;;;;28.60;17.62;;;;;;;11.81;100.00;101756.97;5450112;32;33246;-89
2022/10/18 07:26:21;;;;;;;31.15;16.75;;;;;;;13.41;100.00;101753.06;5464622;32;34349;-87
2022/10/18 07:29:24;;;;;;;28.65;16.50;;;;;;;15.75;94.18;101750.88;5461562;32;34065;-89
2022/10/18 07:32:26;;;;;;;27.92;17.05;;;;;;;17.58;79.16;101745.69;5438286;32;33711;-92
2022/10/18 07:35:29;;;;;;;30.45;17.62;;;;;;;18.61;70.36;101744.16;5454275;32;34242;-91
2022/10/18 07:38:32;;;;;;;22.67;15.77;;;;;;;18.96;68.97;101744.63;5454429;32;35158;-91
2022/10/18 07:41:34;;;;;;;23.10;15.52;;;;;;;19.65;67.31;101743.81;5453231;32;33990;-89
2022/10/18 07:44:38;;;;;;;25.52;16.30;;;;;;;19.94;65.05;101740.12;5446312;32;34056;-84
2022/10/18 07:47:41;;;;;;;21.58;15.45;;;;;;;21.95;53.24;101739.38;5443246;32;32465;-85
2022/10/18 07:50:44;;;;;;;19.62;14.63;;;;;;;24.41;44.34;101724.91;5461132;32;33868;-85
2022/10/18 07:53:48;;;;;;;22.05;14.80;;;;;;;27.10;38.73;101729.16;5451761;32;33857;-84
2022/10/18 07:56:50;;;;;;;18.23;13.88;;;;;;;30.04;30.50;101722.19;5461095;32;34203;-84
2022/10/18 07:59:55;;;;;;;23.77;14.65;;;;;;;31.14;28.58;101722.50;5464668;32;33926;-88
2022/10/18 08:03:00;;;;;;;21.60;14.25;;;;;;;31.72;26.84;101718.47;5465456;32;34669;-89
2022/10/18 08:06:04;;;;;;;20.83;14.57;;;;;;;32.67;24.78;101716.16;5460963;32;34419;-86
2022/10/18 08:09:07;;;;;;;22.73;14.68;;;;;;;32.72;25.10;101701.84;5459094;32;34404;-87
2022/10/18 08:12:10;;;;;;;22.92;14.98;;;;;;;30.24;27.13;101705.41;5462552;32;33941;-87
2022/10/18 08:15:13;;;;;;;22.60;16.17;;;;;;;26.60;33.69;101700.50;5461655;32;34084;-88
2022/10/18 08:41:49;;;;;;;26.10;16.92;;;;;;;23.73;37.05;101674.66;691449;30;20357;-86
2022/10/18 08:44:53;;;;;;;28.27;16.23;;;;;;;20.71;44.88;101666.53;5436999;32;32099;-86
2022/10/18 08:47:56;;;;;;;30.90;16.80;;;;;;;19.76;49.42;101661.47;5439193;32;33724;-87
2022/10/18 08:51:01;;;;;;;23.80;16.65;;;;;;;19.41;53.99;101656.66;5428370;32;33590;-88
2022/10/18 08:54:13;;;;;;;23.50;16.95;;;;;;;18.64;52.69;101653.47;5438217;32;34810;-87
2022/10/18 08:57:17;;;;;;;24.30;16.98;;;;;;;18.07;54.80;101662.38;5440148;32;33910;-86
2022/10/18 09:00:22;;;;;;;26.10;17.10;;;;;;;18.11;54.30;101650.50;5428970;32;33091;-85
2022/10/18 09:04:05;;;;;;;23.23;15.68;;;;;;;18.18;55.68;101641.97;5444828;32;34987;-85
2022/10/18 09:07:26;;;;;;;25.20;16.80;;;;;;;18.32;54.55;101634.88;5439889;32;33880;-86
2022/10/18 09:10:45;;;;;;;28.45;16.37;;;;;;;18.54;55.12;101631.69;5440566;32;35304;-86
2022/10/18 09:14:09;;;;;;;26.08;16.17;;;;;;;18.32;52.83;101632.19;5438162;32;33802;-85
2022/10/18 09:17:50;;;;;;;21.05;14.40;;;;;;;18.48;52.28;101620.47;5428358;32;33429;-91
2022/10/18 09:20:57;;;;;;;23.08;13.55;;;;;;;18.23;51.55;101622.88;5436191;32;33733;-86
2022/10/18 09:24:11;;;;;;;19.67;12.02;;;;;;;18.91;50.86;101620.37;5435778;32;33980;-87
2022/10/18 09:27:19;;;;;;;19.37;12.50;;;;;;;19.53;50.52;101615.47;5444789;32;33734;-86
2022/10/18 09:30:35;;;;;;;15.95;10.13;;;;;;;19.85;49.64;101611.50;5433003;32;32939;-86
2022/10/18 09:33:49;;;;;;;14.00;9.43;;;;;;;19.97;49.85;101615.22;5444266;32;34074;-86
2022/10/18 09:36:53;;;;;;;14.57;9.23;;;;;;;20.32;45.74;101604.62;5439162;32;35176;-86
2022/10/18 09:40:11;;;;;;;10.68;9.02;;;;;;;20.28;42.99;101604.94;5428974;32;33063;-87
2022/10/18 09:43:24;;;;;;;16.80;9.63;;;;;;;20.55;42.17;101607.47;5421249;32;32406;-87
2022/10/18 09:46:32;;;;;;;11.10;8.80;;;;;;;20.52;40.46;101606.84;5441559;32;35358;-87
2022/10/18 09:49:40;;;;;;;15.18;9.32;;;;;;;20.36;42.64;101599.84;5439054;32;34252;-86
2022/10/18 09:52:50;;;;;;;12.23;9.10;;;;;;;20.89;40.55;101593.37;5450147;32;34910;-86
2022/10/18 09:56:05;;;;;;;14.23;8.65;;;;;;;21.13;40.38;101590.66;5440781;32;35183;-90
2022/10/18 09:59:46;;;;;;;13.98;9.02;;;;;;;21.60;42.74;101578.19;5442339;32;34175;-87
2022/10/18 10:02:50;;;;;;;13.00;8.80;;;;;;;22.01;39.41;101586.72;5437522;32;34341;-87
2022/10/18 10:06:11;;;;;;;13.65;8.73;;;;;;;22.19;38.29;101579.84;5441034;32;34703;-87
2022/10/18 10:09:16;;;;;;;16.23;9.07;;;;;;;21.65;38.63;101573.28;5438333;32;34720;-87
2022/10/18 10:12:28;;;;;;;11.93;9.02;;;;;;;21.56;37.49;101569.47;5426291;32;32602;-86
2022/10/18 10:15:32;;;;;;;12.20;9.55;;;;;;;22.05;38.27;101566.59;5438820;32;35301;-87
2022/10/18 10:18:43;;;;;;;17.27;8.57;;;;;;;21.70;38.69;101563.03;5429929;32;31583;-87
2022/10/18 10:21:49;;;;;;;17.98;9.25;;;;;;;21.88;38.07;101559.84;5428828;32;33475;-87
2022/10/18 10:24:53;;;;;;;12.25;8.63;;;;;;;22.30;37.93;101543.00;5435242;32;34915;-87
2022/10/18 10:28:02;;;;;;;12.15;7.87;;;;;;;22.57;38.58;101534.50;5443663;32;34541;-86
2022/10/18 10:31:26;;;;;;;10.57;7.35;;;;;;;22.43;36.31;101545.56;5445242;32;34423;-87
2022/10/18 10:34:30;;;;;;;11.70;7.40;;;;;;;23.39;35.29;101531.34;5446110;32;33900;-87
2022/10/18 10:37:38;;;;;;;12.75;8.20;;;;;;;25.22;31.72;101532.28;5441705;32;34085;-86
2022/10/18 10:40:50;;;;;;;10.93;7.25;;;;;;;27.51;27.48;101520.81;5441134;32;34980;-89
2022/10/18 10:43:53;;;;;;;12.73;7.32;;;;;;;26.91;28.01;101517.81;5442815;32;35263;-90
2022/10/18 10:46:56;;;;;;;11.35;7.18;;;;;;;25.28;30.85;101512.72;5443676;32;34225;-90
2022/10/18 10:50:10;;;;;;;17.52;6.75;;;;;;;23.99;35.07;101511.72;5431417;32;33260;-88
2022/10/18 11:00:56;;;;;;;10.43;6.00;;;;;;;23.61;32.11;101505.09;5437685;32;20149;-87
2022/10/18 11:04:21;;;;;;;14.45;6.68;;;;;;;27.59;27.58;101499.09;5437223;32;33999;-88
2022/10/18 11:07:35;;;;;;;9.80;6.05;;;;;;;28.31;25.26;101489.66;5432459;32;33642;-87
2022/10/18 11:11:07;;;;;;;9.27;5.97;;;;;;;25.01;30.07;101492.62;5423597;32;33814;-90
2022/10/18 11:14:37;;;;;;;10.88;5.82;;;;;;;23.96;30.83;101485.75;5433560;32;34896;-88
2022/10/18 11:18:09;;;;;;;7.30;6.07;;;;;;;23.15;32.54;101481.88;5451303;27;34505;-87
2022/10/18 11:21:22;;;;;;;11.27;6.20;;;;;;;21.84;33.83;101475.53;5438794;32;33991;-88
2022/10/18 11:24:25;;;;;;;14.18;5.93;;;;;;;21.64;34.23;101469.84;5495023;27;33892;-90
2022/10/18 11:27:34;;;;;;;6.45;5.78;;;;;;;21.59;35.10;101463.94;5440053;32;33941;-89
2022/10/18 11:30:54;;;;;;;11.10;7.03;;;;;;;21.16;36.06;101460.09;5416885;32;33873;-90
2022/10/18 11:34:17;;;;;;;6.87;5.78;;;;;;;21.15;35.86;101450.28;5428193;32;34474;-88
2022/10/18 11:37:54;;;;;;;7.57;5.50;;;;;;;21.33;36.51;101449.81;5432265;27;33762;-88
2022/10/18 11:41:22;;;;;;;8.55;6.40;;;;;;;21.09;37.18;101443.53;5422405;32;35298;-88
2022/10/18 11:44:36;;;;;;;9.40;6.05;;;;;;;21.06;37.03;101443.75;5430390;32;34122;-88
2022/10/18 11:47:57;;;;;;;7.80;6.05;;;;;;;21.32;37.20;101434.63;5429455;32;34706;-88
2022/10/18 11:51:03;;;;;;;9.52;6.70;;;;;;;21.21;37.26;101425.50;5416771;32;33069;-87
2022/10/18 11:54:38;;;;;;;6.90;5.80;;;;;;;20.79;38.05;101420.63;5452203;27;33522;-88
2022/10/18 11:57:50;;;;;;;8.25;6.40;;;;;;;20.98;37.80;101416.53;5455096;27;34136;-89
2022/10/18 12:00:59;;;;;;;9.35;5.72;;;;;;;20.95;38.21;101412.22;5417181;32;34833;-88
2022/10/18 12:04:16;;;;;;;15.90;6.50;;;;;;;21.22;37.72;101404.81;5449248;27;34808;-88
2022/10/18 12:07:21;;;;;;;12.77;6.93;;;;;;;21.31;37.21;101400.53;5476753;27;32588;-88
2022/10/18 12:10:36;;;;;;;11.30;6.53;;;;;;;21.05;37.39;101388.09;5428884;32;34229;-91
2022/10/18 12:14:04;;;;;;;11.12;6.35;;;;;;;21.07;37.93;101390.69;5425637;32;34020;-88
2022/10/18 12:17:32;;;;;;;7.40;6.18;;;;;;;20.92;38.46;101388.19;5423359;32;34244;-87
2022/10/18 12:20:55;;;;;;;8.48;6.30;;;;;;;20.68;38.68;101389.09;5408655;32;33212;-88
2022/10/18 12:24:02;;;;;;;8.18;6.40;;;;;;;20.81;39.13;101369.28;5469770;27;32653;-88
2022/10/18 12:27:05;;;;;;;7.68;6.22;;;;;;;20.52;38.16;101377.75;5418502;32;34952;-87
2022/10/18 12:30:20;;;;;;;11.10;6.28;;;;;;;20.36;39.18;101370.84;5418151;32;34107;-87
2022/10/18 12:33:27;;;;;;;9.88;5.70;;;;;;;20.61;38.54;101363.56;5426217;32;33892;-89
2022/10/18 12:37:01;;;;;;;10.88;6.15;;;;;;;20.79;38.85;101355.03;5420671;32;34121;-87
2022/10/18 12:40:40;;;;;;;14.73;6.18;;;;;;;20.92;38.19;101355.81;5432964;32;34224;-87
2022/10/18 12:43:55;;;;;;;9.20;6.40;;;;;;;20.54;38.10;101346.16;5413651;32;34926;-87
2022/10/18 12:47:01;;;;;;;7.60;6.45;;;;;;;20.35;38.88;101338.63;5408612;32;32886;-86
2022/10/18 12:50:21;;;;;;;11.25;6.22;;;;;;;20.43;38.18;101338.91;5392369;32;32953;-87
2022/10/18 12:53:26;;;;;;;10.32;6.12;;;;;;;20.39;39.09;101321.25;5408273;32;32256;-86
2022/10/18 12:56:33;;;;;;;9.02;6.10;;;;;;;20.49;39.93;101327.66;5412113;32;32817;-87
2022/10/18 12:59:39;;;;;;;14.73;6.72;;;;;;;20.54;39.44;101320.06;5452717;27;35098;-87
2022/10/18 13:02:42;;;;;;;12.25;6.43;;;;;;;20.57;39.44;101316.28;5438601;32;33817;-88
2022/10/18 13:05:51;;;;;;;14.82;6.03;;;;;;;20.60;39.24;101318.72;5430726;32;34400;-88
2022/10/18 13:09:18;;;;;;;8.50;6.05;;;;;;;20.46;39.15;101309.00;5438930;32;33833;-89
